Historyczne dane pomiarowe

Dodano dane terminowe – wersja testowa.

Dane z okresu 1951-2019

Wersja bazy: 1.34 [2019-03-16, lista zmian], aktualizacja planowana na 2019-04-15

Dane meteo z obszaru Polski uzyskane na podstawie danych udostępnionych przez Instytut Meteorologii i Gospodarki Wodnej – Państwowy Instytut Badawczy.

 

Wybierz Datę:    

       

TemperaturaWilgotnośćZachmurzenieWiatrCiśnienieWidzialnośćZjawiska
 Data    tng td wb rh cc ccl cl cm ch dir g1 g2 mslp ppp      
1999-07-02 00:00:00 16.0--- 15.7 15.898wxwxwx1wx--1017.2 994.4 0.0---wx
1999-07-02 01:00:00 15.7--- 15.2 15.497wxwxwx1wx--1016.8 993.9----wx
1999-07-02 02:00:00 15.1--- 14.9 15.099wxwxwx1wx--1016.8 993.9----wx
1999-07-02 03:00:00 14.5--- 14.5 14.5100wxwx1wx--1016.8 993.8----wx
1999-07-02 04:00:00 14.5--- 14.5 14.5100wxwx1wx--1016.8 993.8----wxw1
1999-07-02 05:00:00 15.1--- 15.1 15.1100wxwx2wx--1016.4 993.5----wxw1
1999-07-02 06:00:00 16.1--- 16.1 16.1100wxwxwx1wx--1016.2 993.4 0.0---wxw1
1999-07-02 07:00:00 16.2--- 16.0 16.199wxwxwxwx1wx--1016.2 993.4----wxw1
1999-07-02 08:00:00 17.4--- 16.8 17.096wxwxwxwx1wx--1016.2 993.5----wx
1999-07-02 09:00:00 18.4--- 17.2 17.692wxwxwxwx1wx--1016.0 993.4----wxw1
1999-07-02 10:00:00 20.4--- 15.0 17.071wxwxwxwx1wx--1015.7 993.2----wx
1999-07-02 11:00:00 20.9--- 12.4 15.858wxwxwxwx2wx--1015.5 993.1----wx
1999-07-02 12:00:00 21.2--- 14.5 17.065wxwxwxwx4wx--1015.2 992.8 0.0---wxw1
1999-07-02 13:00:00 21.4--- 13.2 16.460wxwxwxwx4wx--1015.0 992.6----wx
1999-07-02 14:00:00 21.4--- 12.5 16.057wxwxwxwx3wx--1014.9 992.5----wx
1999-07-02 15:00:00 21.8--- 14.1 17.061wxwxwxwx3wx--1014.6 992.3----wx
1999-07-02 16:00:00 21.0--- 13.9 16.664wxwxwxwx3wx--1014.8 992.4----wx
1999-07-02 17:00:00 21.6--- 14.6 17.264wxwxwxwx2wx--1014.6 992.2----wx
1999-07-02 18:00:00 21.4--- 13.2 16.460wxwxwxwxwx2wx--1014.8 992.4 0.0---wx
1999-07-02 19:00:00 20.1--- 13.7 16.267wxwxwxwx1wx--1015.1 992.6----wx
1999-07-02 20:00:00 18.8--- 13.5 15.671wxwxwxwx1wx--1015.6 993.0----wx
1999-07-02 21:00:00 18.2--- 13.6 15.474wxwxwxwx1wx--1015.8 993.2----wx
1999-07-02 22:00:00 17.2--- 13.9 15.281wxwxwx1wx--1015.9 993.2----wx
1999-07-02 23:00:00 16.7--- 13.5 14.882wxwxwxwx2wx--1016.0 993.2----wx

 

Źródłem pochodzenia danych jest Instytut Meteorologii i Gospodarki Wodnej – Państwowy Instytut Badawczy. Dane Instytutu Meteorologii i Gospodarki Wodnej – Państwowego Instytutu Badawczego zostały przetworzone.

Dane źródłowe można odnaleźć na stronie https://dane.imgw.pl